sensor_id;sensor_type;location;lat;lon;timestamp;P1;durP1;ratioP1;P2;durP2;ratioP2
60917;SDS011;46792;38.854;-9.384;2023-04-01T00:01:15;62.50;;;9.93;;
60917;SDS011;46792;38.854;-9.384;2023-04-01T00:03:16;55.53;;;11.93;;
60917;SDS011;46792;38.854;-9.384;2023-04-01T00:05:17;75.43;;;16.13;;
60917;SDS011;46792;38.854;-9.384;2023-04-01T00:07:18;53.25;;;9.68;;
60917;SDS011;46792;38.854;-9.384;2023-04-01T00:09:19;52.40;;;10.80;;
60917;SDS011;46792;38.854;-9.384;2023-04-01T00:11:20;48.40;;;10.68;;
60917;SDS011;46792;38.854;-9.384;2023-04-01T00:13:21;66.85;;;11.55;;
60917;SDS011;46792;38.854;-9.384;2023-04-01T00:15:21;58.92;;;10.30;;
60917;SDS011;46792;38.854;-9.384;2023-04-01T00:17:40;80.22;;;11.05;;
60917;SDS011;46792;38.854;-9.384;2023-04-01T00:20:00;69.82;;;11.15;;
60917;SDS011;46792;38.854;-9.384;2023-04-01T00:22:19;62.88;;;11.63;;
60917;SDS011;46792;38.854;-9.384;2023-04-01T00:24:20;59.25;;;11.55;;
60917;SDS011;46792;38.854;-9.384;2023-04-01T00:26:21;65.85;;;13.25;;
60917;SDS011;46792;38.854;-9.384;2023-04-01T00:28:40;60.95;;;11.13;;
60917;SDS011;46792;38.854;-9.384;2023-04-01T00:30:41;65.85;;;9.85;;
60917;SDS011;46792;38.854;-9.384;2023-04-01T00:32:42;56.13;;;11.27;;
60917;SDS011;46792;38.854;-9.384;2023-04-01T00:35:02;63.10;;;12.38;;
60917;SDS011;46792;38.854;-9.384;2023-04-01T00:37:03;64.00;;;11.60;;
60917;SDS011;46792;38.854;-9.384;2023-04-01T00:39:04;49.65;;;10.23;;
60917;SDS011;46792;38.854;-9.384;2023-04-01T00:41:05;64.72;;;10.90;;
60917;SDS011;46792;38.854;-9.384;2023-04-01T00:43:25;49.15;;;8.98;;
60917;SDS011;46792;38.854;-9.384;2023-04-01T00:45:30;44.65;;;9.10;;
60917;SDS011;46792;38.854;-9.384;2023-04-01T00:47:37;43.50;;;9.60;;
60917;SDS011;46792;38.854;-9.384;2023-04-01T00:49:42;48.53;;;10.02;;
60917;SDS011;46792;38.854;-9.384;2023-04-01T00:51:50;62.10;;;11.25;;
60917;SDS011;46792;38.854;-9.384;2023-04-01T00:56:59;70.60;;;12.15;;
60917;SDS011;46792;38.854;-9.384;2023-04-01T00:59:04;62.83;;;10.57;;
60917;SDS011;46792;38.854;-9.384;2023-04-01T01:01:22;53.95;;;11.60;;
60917;SDS011;46792;38.854;-9.384;2023-04-01T01:03:26;51.50;;;8.25;;
60917;SDS011;46792;38.854;-9.384;2023-04-01T01:05:55;69.68;;;10.25;;
60917;SDS011;46792;38.854;-9.384;2023-04-01T01:18:09;55.85;;;9.88;;
60917;SDS011;46792;38.854;-9.384;2023-04-01T01:20:54;46.90;;;8.05;;
60917;SDS011;46792;38.854;-9.384;2023-04-01T01:23:29;51.88;;;8.82;;
60917;SDS011;46792;38.854;-9.384;2023-04-01T01:30:34;47.83;;;9.25;;
60917;SDS011;46792;38.854;-9.384;2023-04-01T01:37:10;49.28;;;8.68;;
60917;SDS011;46792;38.854;-9.384;2023-04-01T01:39:15;54.58;;;9.95;;
60917;SDS011;46792;38.854;-9.384;2023-04-01T01:41:17;56.25;;;9.88;;
60917;SDS011;46792;38.854;-9.384;2023-04-01T01:43:22;45.05;;;8.93;;
60917;SDS011;46792;38.854;-9.384;2023-04-01T01:45:27;43.95;;;10.10;;
60917;SDS011;46792;38.854;-9.384;2023-04-01T01:47:29;58.97;;;9.27;;
60917;SDS011;46792;38.854;-9.384;2023-04-01T01:49:31;52.67;;;9.98;;
60917;SDS011;46792;38.854;-9.384;2023-04-01T01:51:34;47.13;;;8.65;;
60917;SDS011;46792;38.854;-9.384;2023-04-01T01:53:37;54.00;;;10.00;;
60917;SDS011;46792;38.854;-9.384;2023-04-01T01:55:42;59.33;;;9.88;;
60917;SDS011;46792;38.854;-9.384;2023-04-01T01:57:47;50.15;;;9.82;;
60917;SDS011;46792;38.854;-9.384;2023-04-01T01:59:50;61.17;;;9.25;;
60917;SDS011;46792;38.854;-9.384;2023-04-01T02:01:58;58.95;;;11.60;;
60917;SDS011;46792;38.854;-9.384;2023-04-01T02:04:01;62.88;;;10.75;;
60917;SDS011;46792;38.854;-9.384;2023-04-01T02:06:04;49.60;;;10.35;;
60917;SDS011;46792;38.854;-9.384;2023-04-01T02:08:15;65.53;;;11.48;;
60917;SDS011;46792;38.854;-9.384;2023-04-01T02:10:20;56.85;;;10.27;;
60917;SDS011;46792;38.854;-9.384;2023-04-01T02:14:31;62.90;;;10.63;;
60917;SDS011;46792;38.854;-9.384;2023-04-01T02:17:15;60.65;;;10.40;;
60917;SDS011;46792;38.854;-9.384;2023-04-01T02:19:18;55.33;;;11.10;;
60917;SDS011;46792;38.854;-9.384;2023-04-01T02:21:24;79.65;;;9.82;;
60917;SDS011;46792;38.854;-9.384;2023-04-01T02:23:46;50.15;;;10.77;;
60917;SDS011;46792;38.854;-9.384;2023-04-01T02:26:06;56.75;;;9.70;;
60917;SDS011;46792;38.854;-9.384;2023-04-01T02:28:10;61.20;;;10.40;;
60917;SDS011;46792;38.854;-9.384;2023-04-01T02:30:14;56.63;;;10.32;;
60917;SDS011;46792;38.854;-9.384;2023-04-01T02:32:16;59.33;;;11.05;;
60917;SDS011;46792;38.854;-9.384;2023-04-01T02:34:20;59.58;;;9.23;;
60917;SDS011;46792;38.854;-9.384;2023-04-01T02:36:22;50.78;;;10.55;;
60917;SDS011;46792;38.854;-9.384;2023-04-01T02:38:23;35.97;;;9.13;;
60917;SDS011;46792;38.854;-9.384;2023-04-01T02:40:24;49.20;;;8.02;;
60917;SDS011;46792;38.854;-9.384;2023-04-01T02:42:25;46.58;;;9.30;;
60917;SDS011;46792;38.854;-9.384;2023-04-01T02:44:26;53.70;;;8.13;;
60917;SDS011;46792;38.854;-9.384;2023-04-01T02:46:26;50.58;;;9.63;;
60917;SDS011;46792;38.854;-9.384;2023-04-01T02:48:45;58.47;;;8.80;;
60917;SDS011;46792;38.854;-9.384;2023-04-01T02:50:46;41.03;;;7.68;;
60917;SDS011;46792;38.854;-9.384;2023-04-01T02:53:05;61.92;;;9.68;;
60917;SDS011;46792;38.854;-9.384;2023-04-01T02:55:06;53.28;;;9.63;;
60917;SDS011;46792;38.854;-9.384;2023-04-01T03:02:42;52.72;;;9.35;;
60917;SDS011;46792;38.854;-9.384;2023-04-01T03:04:44;56.38;;;9.07;;
60917;SDS011;46792;38.854;-9.384;2023-04-01T03:06:45;50.00;;;11.35;;
60917;SDS011;46792;38.854;-9.384;2023-04-01T03:09:04;68.15;;;13.23;;
60917;SDS011;46792;38.854;-9.384;2023-04-01T03:11:23;68.80;;;13.48;;
60917;SDS011;46792;38.854;-9.384;2023-04-01T03:13:26;65.63;;;11.77;;
60917;SDS011;46792;38.854;-9.384;2023-04-01T03:15:45;55.97;;;11.77;;
60917;SDS011;46792;38.854;-9.384;2023-04-01T03:20:42;64.60;;;12.15;;
60917;SDS011;46792;38.854;-9.384;2023-04-01T03:22:44;55.10;;;9.70;;
60917;SDS011;46792;38.854;-9.384;2023-04-01T03:24:46;56.85;;;10.95;;
60917;SDS011;46792;38.854;-9.384;2023-04-01T03:28:52;40.75;;;9.63;;
60917;SDS011;46792;38.854;-9.384;2023-04-01T03:30:53;48.60;;;9.88;;
60917;SDS011;46792;38.854;-9.384;2023-04-01T03:32:54;55.38;;;11.75;;
60917;SDS011;46792;38.854;-9.384;2023-04-01T03:35:16;63.72;;;12.80;;
60917;SDS011;46792;38.854;-9.384;2023-04-01T03:37:17;62.22;;;12.13;;
60917;SDS011;46792;38.854;-9.384;2023-04-01T03:39:17;66.53;;;11.55;;
60917;SDS011;46792;38.854;-9.384;2023-04-01T03:41:18;57.00;;;10.90;;
60917;SDS011;46792;38.854;-9.384;2023-04-01T03:43:20;63.72;;;13.88;;
60917;SDS011;46792;38.854;-9.384;2023-04-01T03:45:20;61.85;;;10.88;;
60917;SDS011;46792;38.854;-9.384;2023-04-01T03:47:21;54.08;;;11.18;;
60917;SDS011;46792;38.854;-9.384;2023-04-01T03:49:21;43.72;;;11.43;;
60917;SDS011;46792;38.854;-9.384;2023-04-01T03:51:23;56.20;;;13.55;;
60917;SDS011;46792;38.854;-9.384;2023-04-01T03:53:42;56.03;;;12.10;;
60917;SDS011;46792;38.854;-9.384;2023-04-01T03:55:43;61.05;;;12.15;;
60917;SDS011;46792;38.854;-9.384;2023-04-01T03:57:43;60.80;;;12.13;;
60917;SDS011;46792;38.854;-9.384;2023-04-01T03:59:51;66.18;;;13.35;;
60917;SDS011;46792;38.854;-9.384;2023-04-01T04:01:58;67.45;;;13.48;;
60917;SDS011;46792;38.854;-9.384;2023-04-01T04:03:59;56.75;;;12.88;;
60917;SDS011;46792;38.854;-9.384;2023-04-01T04:06:00;60.75;;;12.80;;
60917;SDS011;46792;38.854;-9.384;2023-04-01T04:08:19;64.10;;;13.32;;
60917;SDS011;46792;38.854;-9.384;2023-04-01T04:10:40;68.65;;;11.88;;
60917;SDS011;46792;38.854;-9.384;2023-04-01T04:12:41;46.35;;;10.43;;
60917;SDS011;46792;38.854;-9.384;2023-04-01T04:14:42;60.17;;;11.75;;
60917;SDS011;46792;38.854;-9.384;2023-04-01T04:16:42;48.33;;;11.05;;
60917;SDS011;46792;38.854;-9.384;2023-04-01T04:18:43;54.22;;;9.45;;
60917;SDS011;46792;38.854;-9.384;2023-04-01T04:20:45;59.03;;;10.82;;
60917;SDS011;46792;38.854;-9.384;2023-04-01T04:22:48;41.05;;;9.30;;
60917;SDS011;46792;38.854;-9.384;2023-04-01T04:24:49;43.67;;;8.13;;
60917;SDS011;46792;38.854;-9.384;2023-04-01T04:27:08;65.22;;;10.15;;
60917;SDS011;46792;38.854;-9.384;2023-04-01T04:29:15;43.55;;;7.45;;
60917;SDS011;46792;38.854;-9.384;2023-04-01T04:31:20;49.42;;;7.97;;
60917;SDS011;46792;38.854;-9.384;2023-04-01T04:33:24;37.67;;;8.67;;
60917;SDS011;46792;38.854;-9.384;2023-04-01T04:35:43;48.13;;;8.00;;
60917;SDS011;46792;38.854;-9.384;2023-04-01T04:37:43;47.53;;;8.32;;
60917;SDS011;46792;38.854;-9.384;2023-04-01T04:39:44;53.17;;;8.43;;
60917;SDS011;46792;38.854;-9.384;2023-04-01T04:41:45;43.35;;;8.55;;
60917;SDS011;46792;38.854;-9.384;2023-04-01T04:43:49;46.00;;;7.93;;
60917;SDS011;46792;38.854;-9.384;2023-04-01T04:45:55;36.28;;;7.32;;
60917;SDS011;46792;38.854;-9.384;2023-04-01T04:47:56;44.30;;;9.00;;
60917;SDS011;46792;38.854;-9.384;2023-04-01T04:49:56;35.40;;;5.63;;
60917;SDS011;46792;38.854;-9.384;2023-04-01T04:51:57;22.55;;;3.88;;
60917;SDS011;46792;38.854;-9.384;2023-04-01T04:54:00;16.65;;;3.35;;
60917;SDS011;46792;38.854;-9.384;2023-04-01T04:56:21;14.10;;;3.45;;
60917;SDS011;46792;38.854;-9.384;2023-04-01T04:58:44;17.42;;;3.03;;
60917;SDS011;46792;38.854;-9.384;2023-04-01T05:00:50;20.20;;;3.72;;
60917;SDS011;46792;38.854;-9.384;2023-04-01T05:02:59;18.13;;;3.75;;
60917;SDS011;46792;38.854;-9.384;2023-04-01T05:05:00;23.45;;;4.15;;
60917;SDS011;46792;38.854;-9.384;2023-04-01T05:07:00;25.92;;;4.00;;
60917;SDS011;46792;38.854;-9.384;2023-04-01T05:09:01;23.23;;;3.92;;
60917;SDS011;46792;38.854;-9.384;2023-04-01T05:11:02;23.02;;;6.03;;
60917;SDS011;46792;38.854;-9.384;2023-04-01T05:13:21;27.17;;;4.80;;
60917;SDS011;46792;38.854;-9.384;2023-04-01T05:15:22;21.45;;;3.60;;
60917;SDS011;46792;38.854;-9.384;2023-04-01T05:17:23;26.98;;;4.03;;
60917;SDS011;46792;38.854;-9.384;2023-04-01T05:19:24;29.83;;;4.47;;
60917;SDS011;46792;38.854;-9.384;2023-04-01T05:24:47;18.17;;;4.25;;
60917;SDS011;46792;38.854;-9.384;2023-04-01T05:26:48;24.92;;;4.57;;
60917;SDS011;46792;38.854;-9.384;2023-04-01T05:28:49;28.52;;;4.32;;
60917;SDS011;46792;38.854;-9.384;2023-04-01T05:34:00;26.85;;;4.82;;
60917;SDS011;46792;38.854;-9.384;2023-04-01T05:36:08;25.90;;;4.28;;
60917;SDS011;46792;38.854;-9.384;2023-04-01T05:38:14;25.23;;;4.38;;
60917;SDS011;46792;38.854;-9.384;2023-04-01T05:40:16;22.70;;;4.35;;
60917;SDS011;46792;38.854;-9.384;2023-04-01T05:42:16;14.75;;;4.35;;
60917;SDS011;46792;38.854;-9.384;2023-04-01T05:44:18;22.60;;;4.18;;
60917;SDS011;46792;38.854;-9.384;2023-04-01T05:46:36;18.95;;;4.32;;
60917;SDS011;46792;38.854;-9.384;2023-04-01T05:48:58;23.95;;;3.88;;
60917;SDS011;46792;38.854;-9.384;2023-04-01T05:51:36;20.52;;;3.55;;
60917;SDS011;46792;38.854;-9.384;2023-04-01T05:53:36;29.77;;;3.85;;
60917;SDS011;46792;38.854;-9.384;2023-04-01T05:55:55;20.20;;;3.90;;
60917;SDS011;46792;38.854;-9.384;2023-04-01T05:58:14;20.73;;;4.65;;
60917;SDS011;46792;38.854;-9.384;2023-04-01T06:00:19;22.45;;;4.00;;
60917;SDS011;46792;38.854;-9.384;2023-04-01T06:02:21;17.02;;;3.95;;
60917;SDS011;46792;38.854;-9.384;2023-04-01T06:11:42;32.17;;;4.72;;
60917;SDS011;46792;38.854;-9.384;2023-04-01T06:28:04;27.95;;;4.88;;
60917;SDS011;46792;38.854;-9.384;2023-04-01T06:49:51;27.98;;;4.85;;
60917;SDS011;46792;38.854;-9.384;2023-04-01T06:57:56;27.83;;;6.18;;
60917;SDS011;46792;38.854;-9.384;2023-04-01T06:59:59;31.83;;;4.82;;
60917;SDS011;46792;38.854;-9.384;2023-04-01T07:04:28;40.67;;;7.68;;
60917;SDS011;46792;38.854;-9.384;2023-04-01T07:06:32;29.40;;;6.53;;
60917;SDS011;46792;38.854;-9.384;2023-04-01T07:11:39;32.33;;;7.03;;
60917;SDS011;46792;38.854;-9.384;2023-04-01T07:14:00;37.03;;;6.40;;
60917;SDS011;46792;38.854;-9.384;2023-04-01T07:18:16;49.67;;;9.02;;
60917;SDS011;46792;38.854;-9.384;2023-04-01T07:20:40;47.17;;;9.25;;
60917;SDS011;46792;38.854;-9.384;2023-04-01T07:23:00;43.75;;;8.50;;
60917;SDS011;46792;38.854;-9.384;2023-04-01T07:25:20;42.15;;;7.50;;
60917;SDS011;46792;38.854;-9.384;2023-04-01T07:27:46;35.95;;;7.63;;
60917;SDS011;46792;38.854;-9.384;2023-04-01T07:29:47;34.70;;;6.55;;
60917;SDS011;46792;38.854;-9.384;2023-04-01T07:34:38;47.72;;;8.00;;
60917;SDS011;46792;38.854;-9.384;2023-04-01T07:44:50;40.45;;;7.47;;
60917;SDS011;46792;38.854;-9.384;2023-04-01T07:47:38;41.90;;;7.45;;
60917;SDS011;46792;38.854;-9.384;2023-04-01T07:49:25;32.83;;;6.32;;
60917;SDS011;46792;38.854;-9.384;2023-04-01T07:51:58;55.22;;;8.57;;
60917;SDS011;46792;38.854;-9.384;2023-04-01T07:54:42;39.30;;;7.43;;
60917;SDS011;46792;38.854;-9.384;2023-04-01T07:56:47;35.38;;;6.53;;
60917;SDS011;46792;38.854;-9.384;2023-04-01T07:59:38;35.72;;;7.45;;
60917;SDS011;46792;38.854;-9.384;2023-04-01T08:17:05;23.80;;;4.28;;
60917;SDS011;46792;38.854;-9.384;2023-04-01T08:21:52;26.15;;;4.25;;
60917;SDS011;46792;38.854;-9.384;2023-04-01T08:26:37;18.42;;;4.03;;
60917;SDS011;46792;38.854;-9.384;2023-04-01T08:28:51;18.60;;;3.50;;
60917;SDS011;46792;38.854;-9.384;2023-04-01T08:31:00;25.80;;;5.15;;
60917;SDS011;46792;38.854;-9.384;2023-04-01T08:33:21;26.83;;;5.20;;
60917;SDS011;46792;38.854;-9.384;2023-04-01T08:37:56;17.83;;;4.45;;
60917;SDS011;46792;38.854;-9.384;2023-04-01T08:40:14;21.55;;;4.15;;
60917;SDS011;46792;38.854;-9.384;2023-04-01T08:45:09;20.48;;;4.00;;
60917;SDS011;46792;38.854;-9.384;2023-04-01T08:51:54;23.08;;;4.75;;
60917;SDS011;46792;38.854;-9.384;2023-04-01T08:54:17;22.65;;;3.50;;
60917;SDS011;46792;38.854;-9.384;2023-04-01T08:56:36;32.15;;;6.50;;
60917;SDS011;46792;38.854;-9.384;2023-04-01T09:20:14;17.60;;;4.63;;
60917;SDS011;46792;38.854;-9.384;2023-04-01T09:25:02;23.25;;;4.50;;
60917;SDS011;46792;38.854;-9.384;2023-04-01T09:36:45;19.33;;;4.18;;
60917;SDS011;46792;38.854;-9.384;2023-04-01T09:39:25;15.65;;;3.35;;
60917;SDS011;46792;38.854;-9.384;2023-04-01T09:41:48;18.23;;;3.45;;
60917;SDS011;46792;38.854;-9.384;2023-04-01T09:44:18;24.77;;;3.85;;
60917;SDS011;46792;38.854;-9.384;2023-04-01T10:07:52;24.33;;;3.72;;
60917;SDS011;46792;38.854;-9.384;2023-04-01T10:17:19;13.32;;;3.10;;
60917;SDS011;46792;38.854;-9.384;2023-04-01T10:22:13;17.25;;;3.47;;
60917;SDS011;46792;38.854;-9.384;2023-04-01T10:24:27;13.07;;;3.50;;
60917;SDS011;46792;38.854;-9.384;2023-04-01T10:36:47;9.90;;;2.05;;
60917;SDS011;46792;38.854;-9.384;2023-04-01T11:12:55;14.95;;;3.22;;
60917;SDS011;46792;38.854;-9.384;2023-04-01T11:23:01;12.70;;;2.70;;
60917;SDS011;46792;38.854;-9.384;2023-04-01T11:40:29;22.67;;;3.55;;
60917;SDS011;46792;38.854;-9.384;2023-04-01T12:08:23;14.38;;;3.95;;
60917;SDS011;46792;38.854;-9.384;2023-04-01T12:15:36;14.10;;;3.85;;
60917;SDS011;46792;38.854;-9.384;2023-04-01T12:22:34;18.60;;;3.97;;
60917;SDS011;46792;38.854;-9.384;2023-04-01T12:27:45;20.38;;;3.83;;
60917;SDS011;46792;38.854;-9.384;2023-04-01T12:37:21;18.35;;;4.57;;
60917;SDS011;46792;38.854;-9.384;2023-04-01T12:56:42;20.20;;;4.45;;
60917;SDS011;46792;38.854;-9.384;2023-04-01T13:15:58;22.70;;;4.72;;
60917;SDS011;46792;38.854;-9.384;2023-04-01T13:20:27;24.38;;;5.95;;
60917;SDS011;46792;38.854;-9.384;2023-04-01T13:22:50;23.80;;;4.90;;
60917;SDS011;46792;38.854;-9.384;2023-04-01T13:25:02;28.60;;;5.18;;
60917;SDS011;46792;38.854;-9.384;2023-04-01T13:27:29;23.38;;;5.15;;
60917;SDS011;46792;38.854;-9.384;2023-04-01T13:41:57;30.00;;;4.38;;
60917;SDS011;46792;38.854;-9.384;2023-04-01T13:46:52;25.08;;;5.85;;
60917;SDS011;46792;38.854;-9.384;2023-04-01T13:49:13;24.42;;;5.68;;
60917;SDS011;46792;38.854;-9.384;2023-04-01T13:52:09;19.90;;;5.30;;
60917;SDS011;46792;38.854;-9.384;2023-04-01T13:59:27;18.10;;;6.75;;
60917;SDS011;46792;38.854;-9.384;2023-04-01T14:06:40;22.38;;;5.50;;
60917;SDS011;46792;38.854;-9.384;2023-04-01T14:09:25;37.78;;;6.25;;
60917;SDS011;46792;38.854;-9.384;2023-04-01T14:11:40;21.73;;;5.03;;
60917;SDS011;46792;38.854;-9.384;2023-04-01T14:16:21;17.60;;;4.57;;
60917;SDS011;46792;38.854;-9.384;2023-04-01T14:30:58;29.10;;;5.20;;
60917;SDS011;46792;38.854;-9.384;2023-04-01T14:33:31;27.65;;;5.35;;
60917;SDS011;46792;38.854;-9.384;2023-04-01T14:40:49;21.25;;;4.28;;
60917;SDS011;46792;38.854;-9.384;2023-04-01T14:43:09;22.17;;;5.13;;
60917;SDS011;46792;38.854;-9.384;2023-04-01T14:45:25;21.25;;;5.28;;
60917;SDS011;46792;38.854;-9.384;2023-04-01T14:47:44;23.67;;;5.32;;
60917;SDS011;46792;38.854;-9.384;2023-04-01T14:50:18;21.38;;;5.32;;
60917;SDS011;46792;38.854;-9.384;2023-04-01T14:52:42;27.13;;;4.60;;
60917;SDS011;46792;38.854;-9.384;2023-04-01T14:54:50;25.83;;;5.55;;
60917;SDS011;46792;38.854;-9.384;2023-04-01T15:01:40;17.27;;;5.38;;
60917;SDS011;46792;38.854;-9.384;2023-04-01T15:04:07;23.52;;;5.05;;
60917;SDS011;46792;38.854;-9.384;2023-04-01T15:08:54;17.10;;;3.85;;
60917;SDS011;46792;38.854;-9.384;2023-04-01T15:11:23;25.05;;;4.90;;
60917;SDS011;46792;38.854;-9.384;2023-04-01T15:17:58;30.67;;;5.13;;
60917;SDS011;46792;38.854;-9.384;2023-04-01T15:25:23;30.50;;;5.68;;
60917;SDS011;46792;38.854;-9.384;2023-04-01T15:31:15;26.77;;;5.38;;
60917;SDS011;46792;38.854;-9.384;2023-04-01T15:36:10;17.48;;;5.10;;
60917;SDS011;46792;38.854;-9.384;2023-04-01T15:41:27;31.38;;;5.45;;
60917;SDS011;46792;38.854;-9.384;2023-04-01T15:43:54;21.13;;;5.68;;
60917;SDS011;46792;38.854;-9.384;2023-04-01T15:48:27;28.52;;;6.40;;
60917;SDS011;46792;38.854;-9.384;2023-04-01T15:50:44;23.58;;;5.05;;
60917;SDS011;46792;38.854;-9.384;2023-04-01T15:53:17;29.63;;;5.90;;
60917;SDS011;46792;38.854;-9.384;2023-04-01T16:03:46;39.42;;;7.28;;
60917;SDS011;46792;38.854;-9.384;2023-04-01T16:26:06;24.83;;;5.07;;
60917;SDS011;46792;38.854;-9.384;2023-04-01T16:30:40;28.52;;;4.97;;
60917;SDS011;46792;38.854;-9.384;2023-04-01T16:35:43;34.88;;;7.28;;
60917;SDS011;46792;38.854;-9.384;2023-04-01T16:38:23;22.33;;;5.72;;
60917;SDS011;46792;38.854;-9.384;2023-04-01T16:43:39;20.92;;;4.57;;
60917;SDS011;46792;38.854;-9.384;2023-04-01T16:45:56;26.67;;;4.80;;
60917;SDS011;46792;38.854;-9.384;2023-04-01T16:48:27;26.85;;;7.20;;
60917;SDS011;46792;38.854;-9.384;2023-04-01T16:50:51;22.70;;;5.53;;
60917;SDS011;46792;38.854;-9.384;2023-04-01T16:55:21;22.45;;;5.13;;
60917;SDS011;46792;38.854;-9.384;2023-04-01T16:57:37;27.00;;;6.32;;
60917;SDS011;46792;38.854;-9.384;2023-04-01T17:02:09;19.00;;;4.68;;
60917;SDS011;46792;38.854;-9.384;2023-04-01T17:11:21;15.30;;;4.13;;
60917;SDS011;46792;38.854;-9.384;2023-04-01T17:13:35;21.30;;;4.43;;
60917;SDS011;46792;38.854;-9.384;2023-04-01T17:18:09;21.50;;;4.28;;
60917;SDS011;46792;38.854;-9.384;2023-04-01T17:29:58;18.55;;;4.82;;
60917;SDS011;46792;38.854;-9.384;2023-04-01T17:36:43;16.70;;;3.97;;
60917;SDS011;46792;38.854;-9.384;2023-04-01T17:39:00;23.67;;;4.10;;
60917;SDS011;46792;38.854;-9.384;2023-04-01T17:52:48;18.75;;;4.40;;
60917;SDS011;46792;38.854;-9.384;2023-04-01T17:54:45;15.40;;;3.65;;
60917;SDS011;46792;38.854;-9.384;2023-04-01T17:59:31;18.55;;;3.50;;
60917;SDS011;46792;38.854;-9.384;2023-04-01T18:06:51;26.20;;;5.53;;
60917;SDS011;46792;38.854;-9.384;2023-04-01T18:09:22;22.80;;;5.70;;
60917;SDS011;46792;38.854;-9.384;2023-04-01T18:23:29;18.30;;;4.15;;
60917;SDS011;46792;38.854;-9.384;2023-04-01T18:25:43;14.40;;;3.55;;
60917;SDS011;46792;38.854;-9.384;2023-04-01T18:30:28;23.05;;;3.95;;
60917;SDS011;46792;38.854;-9.384;2023-04-01T18:32:56;20.55;;;4.13;;
60917;SDS011;46792;38.854;-9.384;2023-04-01T18:35:17;22.25;;;4.28;;
60917;SDS011;46792;38.854;-9.384;2023-04-01T18:37:32;25.17;;;4.70;;
60917;SDS011;46792;38.854;-9.384;2023-04-01T18:39:38;23.80;;;4.40;;
60917;SDS011;46792;38.854;-9.384;2023-04-01T18:41:50;24.38;;;6.43;;
60917;SDS011;46792;38.854;-9.384;2023-04-01T18:48:56;31.63;;;5.25;;
60917;SDS011;46792;38.854;-9.384;2023-04-01T18:53:39;23.92;;;4.22;;
60917;SDS011;46792;38.854;-9.384;2023-04-01T18:58:32;24.80;;;5.13;;
60917;SDS011;46792;38.854;-9.384;2023-04-01T19:00:39;21.20;;;5.70;;
60917;SDS011;46792;38.854;-9.384;2023-04-01T19:02:45;20.23;;;4.63;;
60917;SDS011;46792;38.854;-9.384;2023-04-01T19:09:48;28.25;;;4.20;;
60917;SDS011;46792;38.854;-9.384;2023-04-01T19:18:34;16.17;;;3.80;;
60917;SDS011;46792;38.854;-9.384;2023-04-01T19:21:03;21.83;;;4.43;;
60917;SDS011;46792;38.854;-9.384;2023-04-01T19:28:01;16.33;;;5.13;;
60917;SDS011;46792;38.854;-9.384;2023-04-01T19:35:33;19.67;;;4.20;;
60917;SDS011;46792;38.854;-9.384;2023-04-01T19:37:51;20.30;;;4.55;;
60917;SDS011;46792;38.854;-9.384;2023-04-01T19:42:41;16.77;;;3.65;;
60917;SDS011;46792;38.854;-9.384;2023-04-01T19:46:54;23.55;;;3.83;;
60917;SDS011;46792;38.854;-9.384;2023-04-01T19:56:23;20.23;;;3.17;;
60917;SDS011;46792;38.854;-9.384;2023-04-01T19:58:30;18.10;;;3.55;;
60917;SDS011;46792;38.854;-9.384;2023-04-01T20:00:47;13.35;;;3.13;;
60917;SDS011;46792;38.854;-9.384;2023-04-01T20:08:11;6.32;;;1.88;;
60917;SDS011;46792;38.854;-9.384;2023-04-01T20:10:25;10.93;;;2.10;;
60917;SDS011;46792;38.854;-9.384;2023-04-01T20:14:54;7.88;;;2.35;;
60917;SDS011;46792;38.854;-9.384;2023-04-01T20:17:20;13.35;;;2.95;;
60917;SDS011;46792;38.854;-9.384;2023-04-01T20:26:36;15.48;;;2.90;;
60917;SDS011;46792;38.854;-9.384;2023-04-01T20:28:56;21.27;;;2.97;;
60917;SDS011;46792;38.854;-9.384;2023-04-01T20:31:19;16.63;;;3.63;;
60917;SDS011;46792;38.854;-9.384;2023-04-01T20:42:05;22.52;;;3.53;;
60917;SDS011;46792;38.854;-9.384;2023-04-01T20:44:50;15.02;;;2.92;;
60917;SDS011;46792;38.854;-9.384;2023-04-01T20:47:04;11.18;;;3.15;;
60917;SDS011;46792;38.854;-9.384;2023-04-01T20:56:36;16.67;;;2.53;;
60917;SDS011;46792;38.854;-9.384;2023-04-01T21:03:38;8.45;;;2.50;;
60917;SDS011;46792;38.854;-9.384;2023-04-01T21:19:28;4.35;;;1.50;;
60917;SDS011;46792;38.854;-9.384;2023-04-01T21:29:51;4.93;;;1.40;;
60917;SDS011;46792;38.854;-9.384;2023-04-01T21:32:01;6.43;;;1.80;;
60917;SDS011;46792;38.854;-9.384;2023-04-01T21:42:05;7.82;;;2.33;;
60917;SDS011;46792;38.854;-9.384;2023-04-01T21:44:29;4.55;;;2.03;;
60917;SDS011;46792;38.854;-9.384;2023-04-01T22:01:54;15.85;;;2.03;;
60917;SDS011;46792;38.854;-9.384;2023-04-01T22:06:38;12.93;;;1.88;;
60917;SDS011;46792;38.854;-9.384;2023-04-01T22:08:58;9.65;;;1.80;;
60917;SDS011;46792;38.854;-9.384;2023-04-01T22:11:30;4.82;;;2.05;;
60917;SDS011;46792;38.854;-9.384;2023-04-01T22:13:39;12.20;;;2.65;;
60917;SDS011;46792;38.854;-9.384;2023-04-01T22:15:45;6.88;;;2.70;;
60917;SDS011;46792;38.854;-9.384;2023-04-01T22:23:33;10.85;;;2.80;;
60917;SDS011;46792;38.854;-9.384;2023-04-01T22:30:53;21.90;;;2.92;;
60917;SDS011;46792;38.854;-9.384;2023-04-01T22:33:02;15.60;;;3.60;;
60917;SDS011;46792;38.854;-9.384;2023-04-01T22:47:00;11.40;;;3.20;;
60917;SDS011;46792;38.854;-9.384;2023-04-01T22:51:39;7.43;;;2.65;;
60917;SDS011;46792;38.854;-9.384;2023-04-01T22:56:12;8.45;;;2.33;;
60917;SDS011;46792;38.854;-9.384;2023-04-01T22:58:18;10.80;;;2.83;;
60917;SDS011;46792;38.854;-9.384;2023-04-01T23:00:33;16.55;;;2.45;;
60917;SDS011;46792;38.854;-9.384;2023-04-01T23:05:05;7.55;;;2.75;;
60917;SDS011;46792;38.854;-9.384;2023-04-01T23:07:35;16.35;;;2.58;;
60917;SDS011;46792;38.854;-9.384;2023-04-01T23:09:49;15.18;;;2.42;;
60917;SDS011;46792;38.854;-9.384;2023-04-01T23:11:58;11.40;;;1.75;;
60917;SDS011;46792;38.854;-9.384;2023-04-01T23:16:25;10.43;;;2.15;;
60917;SDS011;46792;38.854;-9.384;2023-04-01T23:20:54;4.63;;;1.98;;
60917;SDS011;46792;38.854;-9.384;2023-04-01T23:29:56;9.55;;;2.30;;
60917;SDS011;46792;38.854;-9.384;2023-04-01T23:32:18;11.02;;;1.60;;
60917;SDS011;46792;38.854;-9.384;2023-04-01T23:34:27;12.05;;;2.45;;
60917;SDS011;46792;38.854;-9.384;2023-04-01T23:36:31;9.95;;;3.47;;
60917;SDS011;46792;38.854;-9.384;2023-04-01T23:38:39;8.68;;;2.03;;
60917;SDS011;46792;38.854;-9.384;2023-04-01T23:40:41;11.90;;;2.40;;
60917;SDS011;46792;38.854;-9.384;2023-04-01T23:42:42;4.88;;;1.67;;
60917;SDS011;46792;38.854;-9.384;2023-04-01T23:44:43;8.45;;;1.70;;
60917;SDS011;46792;38.854;-9.384;2023-04-01T23:46:44;7.45;;;1.40;;
60917;SDS011;46792;38.854;-9.384;2023-04-01T23:48:48;11.00;;;2.10;;
60917;SDS011;46792;38.854;-9.384;2023-04-01T23:51:13;20.48;;;2.47;;
60917;SDS011;46792;38.854;-9.384;2023-04-01T23:53:24;8.80;;;1.75;;
60917;SDS011;46792;38.854;-9.384;2023-04-01T23:55:33;7.43;;;1.70;;
60917;SDS011;46792;38.854;-9.384;2023-04-01T23:57:35;5.22;;;1.67;;
60917;SDS011;46792;38.854;-9.384;2023-04-01T23:59:36;11.30;;;2.20;;
